Главная страница
METAR-TAF:

METAR-TAF

Аэропорты :

Кутаиси, Грузия

широта: 42-10-35N, долгота: 042-28-57E, высота над уровнем моря: 68 м

Текущие метеонаблюдения

Эта сводка был подготовлена 24 минут назад, в 10:00 UTC
Ветер 4 Узел от западно-северо-западный, изменяющийся между юго-западный и северо-северо-восточный
Температура 13°C
Влажность 35%
Давление 1021 hPa
Видимость 10 км и более
Нет облачности ниже 1500 м, и нет кучево-дождевой облачности

METAR: UGKO 231000Z 30004KT 220V030 CAVOK 13/M02 Q1021 R07/09//70 NOSIG

Время: 14:24 (10:24 UTC)

Прогноз

Эта сводка был подготовлена 5 часа и 24 минут назад, в 05:00 UTC
Прогноз действительный с 23-го 06 UTC до 24-го 06 UTC
Ветер 2 Узел переменных направлений
Видимость 10 км и более
Отдельные облака на высоте 4000 фута
временами
С 23-го 11 UTC до 23-го 17 UTC
Ветер 12 Узел от западный

TAF: UGKO 230500Z 2306/2406 VRB02KT 9999 SCT040 TX14/2312Z TN01/2402Z TEMPO 2311/2317 26012KT

Метеонаблюдения и прогнозы для более 4000 аэропортов (сводки METAR и TAF).

Имеющиеся станции представлены на карте желтыми и красными точками.

Чтобы увидеть название станции, наведите на нее мышь.

Затем щелкните, чтобы увидеть метеонаблюдения и метеопрогнозы.

Управление картой: чтобы увеличить масштаб, щелкните зеленые кнопки с черным крестиком; чтобы уменьшить масштаб, щелкните зеленую кнопку с тире; для просмотра соседних карт щелкайте зеленые стрелки.


METAR-TAF: